Time;durP1;ratioP1;P1;durP2;ratioP2;P2;SDS_P1;SDS_P2;PMS_P1;PMS_P2;Temp;Humidity;BMP_temperature;BMP_pressure;BME280_temperature;BME280_humidity;BME280_pressure;Samples;Min_cycle;Max_cycle;Signal;HPM_P1;HPM_P2
2022/02/27 00:01:30;;;;;;;17.90;7.17;;;2.10;99.90;;;;;;5013533;28;20412;-79
2022/02/27 00:03:56;;;;;;;17.73;6.23;;;2.00;99.90;;;;;;4995163;28;20057;-79
2022/02/27 00:06:22;;;;;;;19.57;6.17;;;2.00;99.90;;;;;;5010330;28;20050;-80
2022/02/27 00:08:48;;;;;;;18.83;6.33;;;2.00;99.90;;;;;;5007103;28;20419;-80
2022/02/27 00:11:13;;;;;;;17.63;6.47;;;1.90;99.90;;;;;;5010670;28;20059;-79
2022/02/27 00:13:39;;;;;;;19.80;6.27;;;1.90;99.90;;;;;;5010769;28;20041;-79
2022/02/27 00:16:05;;;;;;;17.13;7.20;;;1.90;99.90;;;;;;5027406;28;20125;-80
2022/02/27 00:18:31;;;;;;;17.67;6.50;;;1.90;99.90;;;;;;5010980;28;20052;-79
2022/02/27 00:21:00;;;;;;;16.67;6.40;;;1.80;99.90;;;;;;4995128;28;20049;-79
2022/02/27 00:23:26;;;;;;;17.87;6.20;;;1.80;99.90;;;;;;4995620;28;20075;-79
2022/02/27 00:25:52;;;;;;;18.47;7.27;;;1.80;99.90;;;;;;5010672;28;20057;-79
2022/02/27 00:28:18;;;;;;;17.83;6.57;;;1.80;99.90;;;;;;5027600;28;20057;-80
2022/02/27 00:30:44;;;;;;;16.60;6.33;;;1.80;99.90;;;;;;5010503;28;20499;-79
2022/02/27 00:33:10;;;;;;;20.80;7.23;;;1.80;99.90;;;;;;5027484;28;20541;-79
2022/02/27 00:35:35;;;;;;;13.63;6.80;;;1.80;99.90;;;;;;4993587;28;20065;-79
2022/02/27 00:38:01;;;;;;;17.53;7.13;;;1.70;99.90;;;;;;5011210;28;20060;-79
2022/02/27 00:40:31;;;;;;;14.60;6.30;;;1.70;99.90;;;;;;5002837;28;20050;-79
2022/02/27 00:42:57;;;;;;;21.27;6.60;;;1.80;99.90;;;;;;4991056;28;20065;-79
2022/02/27 00:45:22;;;;;;;17.87;7.20;;;1.70;99.90;;;;;;5007162;28;20041;-79
2022/02/27 00:47:48;;;;;;;19.20;7.53;;;1.60;99.90;;;;;;5006081;28;20084;-79
2022/02/27 00:50:14;;;;;;;17.47;7.27;;;1.60;99.90;;;;;;5007614;28;20053;-79
2022/02/27 00:52:41;;;;;;;16.60;7.10;;;1.70;99.90;;;;;;4991123;28;20053;-79
2022/02/27 00:55:09;;;;;;;19.40;7.17;;;1.50;99.90;;;;;;5009960;28;20034;-79
2022/02/27 00:57:35;;;;;;;17.93;7.40;;;1.50;99.90;;;;;;5007128;28;20046;-79
2022/02/27 01:00:01;;;;;;;15.83;6.60;;;1.60;99.90;;;;;;5008411;28;20053;-79
2022/02/27 01:02:27;;;;;;;20.53;7.63;;;1.50;99.90;;;;;;4991195;28;20042;-79
2022/02/27 01:04:56;;;;;;;19.60;7.50;;;1.50;99.90;;;;;;4991348;28;20081;-79
2022/02/27 01:07:21;;;;;;;20.60;7.77;;;1.40;99.90;;;;;;5006875;28;20082;-80
2022/02/27 01:09:47;;;;;;;17.57;7.23;;;1.40;99.90;;;;;;4990690;28;20053;-78
2022/02/27 01:12:13;;;;;;;22.40;7.80;;;1.40;99.90;;;;;;4991200;28;20045;-79
2022/02/27 01:14:39;;;;;;;21.17;7.73;;;1.40;99.90;;;;;;4990758;28;20056;-79
2022/02/27 01:17:06;;;;;;;22.90;8.47;;;1.40;99.90;;;;;;4990855;28;20046;-79
2022/02/27 01:19:35;;;;;;;18.90;7.20;;;1.40;99.90;;;;;;4994173;28;20049;-79
2022/02/27 01:22:01;;;;;;;17.57;7.67;;;1.50;99.90;;;;;;5010807;28;20049;-79
2022/02/27 01:24:26;;;;;;;19.47;7.43;;;1.50;99.90;;;;;;5010887;28;20099;-79
2022/02/27 01:26:52;;;;;;;19.20;7.83;;;1.60;99.90;;;;;;4994532;28;20100;-79
2022/02/27 01:29:18;;;;;;;15.60;7.20;;;1.60;99.90;;;;;;5011113;28;20504;-78
2022/02/27 01:31:44;;;;;;;19.47;7.30;;;1.60;99.90;;;;;;5022993;28;20106;-78
2022/02/27 01:34:10;;;;;;;17.63;6.87;;;1.70;99.90;;;;;;5003774;28;20108;-78
2022/02/27 01:36:36;;;;;;;18.97;7.67;;;1.70;99.90;;;;;;5016389;28;20448;-78
2022/02/27 01:39:04;;;;;;;18.10;7.47;;;1.70;99.90;;;;;;5010296;28;20044;-78
2022/02/27 01:41:30;;;;;;;22.67;8.03;;;1.70;99.90;;;;;;5009184;28;20089;-78
2022/02/27 01:43:56;;;;;;;20.83;7.07;;;1.70;99.90;;;;;;4977281;28;20132;-78
2022/02/27 01:46:22;;;;;;;20.77;7.60;;;1.70;99.90;;;;;;5026222;28;20045;-78
2022/02/27 01:48:47;;;;;;;18.57;7.83;;;1.70;99.90;;;;;;4996831;28;20775;-78
2022/02/27 01:51:14;;;;;;;15.30;7.23;;;1.80;99.90;;;;;;4994034;28;20053;-78
2022/02/27 01:53:41;;;;;;;17.67;7.50;;;1.80;99.90;;;;;;5009734;28;20416;-78
2022/02/27 01:56:07;;;;;;;17.30;7.47;;;1.80;99.90;;;;;;5024324;28;20057;-78
2022/02/27 01:58:35;;;;;;;15.93;7.37;;;1.70;99.90;;;;;;4997348;28;20040;-79
2022/02/27 02:01:01;;;;;;;18.60;7.73;;;1.80;99.90;;;;;;5011257;28;20057;-78
2022/02/27 02:03:27;;;;;;;16.13;7.07;;;1.80;99.90;;;;;;4994273;28;20041;-79
2022/02/27 02:05:54;;;;;;;21.20;7.57;;;1.90;99.90;;;;;;4977335;28;20165;-79
2022/02/27 02:08:20;;;;;;;15.23;7.00;;;1.80;99.90;;;;;;4993980;28;20861;-78
2022/02/27 02:10:46;;;;;;;21.00;7.97;;;1.90;99.90;;;;;;5019224;28;20049;-79
2022/02/27 02:13:12;;;;;;;18.83;7.20;;;1.90;99.90;;;;;;4997853;28;20427;-78
2022/02/27 02:15:38;;;;;;;17.93;7.30;;;1.90;99.90;;;;;;5012888;28;20041;-79
2022/02/27 02:18:08;;;;;;;14.80;6.83;;;1.80;99.90;;;;;;5004325;28;20045;-77
2022/02/27 02:20:35;;;;;;;17.70;6.65;;;1.90;99.90;;;;;;5013466;28;20660;-79
2022/02/27 02:23:01;;;;;;;16.93;7.13;;;1.80;99.90;;;;;;5005005;28;20053;-79
2022/02/27 02:25:30;;;;;;;16.93;6.60;;;1.80;99.90;;;;;;4989043;28;20054;-79
2022/02/27 02:27:55;;;;;;;18.43;7.73;;;1.80;99.90;;;;;;5016245;28;20499;-78
2022/02/27 02:30:21;;;;;;;18.33;6.90;;;1.70;99.90;;;;;;4987203;28;20053;-78
2022/02/27 02:32:54;;;;;;;19.47;6.97;;;1.80;99.90;;;;;;5007583;28;20610;-79
2022/02/27 02:35:21;;;;;;;24.53;7.70;;;1.70;99.90;;;;;;5016562;28;20045;-79
2022/02/27 02:37:47;;;;;;;19.60;7.67;;;1.70;99.90;;;;;;4993466;28;20115;-79
2022/02/27 02:40:13;;;;;;;20.30;7.93;;;1.70;99.90;;;;;;5009662;28;20500;-79
2022/02/27 02:42:41;;;;;;;16.63;7.53;;;1.70;99.90;;;;;;5008980;28;20100;-79
2022/02/27 02:45:07;;;;;;;19.80;7.43;;;1.80;99.90;;;;;;5022410;28;20037;-79
2022/02/27 02:47:33;;;;;;;21.90;6.87;;;1.70;99.90;;;;;;5029198;28;20061;-78
2022/02/27 02:50:00;;;;;;;20.17;7.33;;;1.70;99.90;;;;;;4996275;28;20569;-77
2022/02/27 02:52:26;;;;;;;17.27;7.43;;;1.80;99.90;;;;;;5012574;28;20078;-78
2022/02/27 02:54:51;;;;;;;16.90;7.47;;;1.80;99.90;;;;;;5007906;28;20050;-78
2022/02/27 02:57:17;;;;;;;19.87;7.37;;;1.80;99.90;;;;;;4998049;28;20477;-78
2022/02/27 02:59:43;;;;;;;21.73;8.47;;;1.90;99.90;;;;;;5008134;28;20148;-77
2022/02/27 03:02:09;;;;;;;21.27;7.40;;;1.90;99.90;;;;;;4996494;28;20045;-78
2022/02/27 03:04:38;;;;;;;21.90;7.83;;;1.90;99.90;;;;;;4992853;28;20427;-78
2022/02/27 03:07:04;;;;;;;17.87;7.70;;;1.90;99.90;;;;;;4977908;28;20099;-78
2022/02/27 03:09:35;;;;;;;19.33;8.10;;;1.90;99.90;;;;;;4976957;28;20049;-78
2022/02/27 03:12:03;;;;;;;16.60;7.43;;;2.00;99.90;;;;;;5012015;28;20045;-78
2022/02/27 03:14:29;;;;;;;20.90;8.50;;;1.90;99.90;;;;;;5011858;28;20569;-79
2022/02/27 03:16:54;;;;;;;21.50;8.63;;;1.90;99.90;;;;;;4979685;28;20045;-78
2022/02/27 03:19:20;;;;;;;20.00;8.20;;;1.90;99.90;;;;;;4995735;28;20050;-79
2022/02/27 03:21:46;;;;;;;21.27;7.27;;;1.90;99.90;;;;;;5011564;28;20033;-79
2022/02/27 03:24:12;;;;;;;21.70;8.13;;;1.90;99.90;;;;;;5012116;28;20049;-78
2022/02/27 03:26:38;;;;;;;19.70;7.87;;;1.80;99.90;;;;;;4992790;28;20049;-79
2022/02/27 03:29:03;;;;;;;17.90;7.17;;;1.90;99.90;;;;;;4992431;28;20408;-79
2022/02/27 03:31:29;;;;;;;18.23;7.07;;;1.80;99.90;;;;;;5015537;28;20072;-79
2022/02/27 03:33:56;;;;;;;20.77;8.33;;;1.90;99.90;;;;;;5011814;28;20176;-79
2022/02/27 03:36:22;;;;;;;17.57;7.03;;;1.90;99.90;;;;;;4995375;28;20083;-79
2022/02/27 03:38:48;;;;;;;18.87;7.73;;;1.80;99.90;;;;;;5011460;28;20053;-79
2022/02/27 03:41:14;;;;;;;16.90;7.30;;;1.90;99.90;;;;;;4996675;28;20057;-79
2022/02/27 03:43:39;;;;;;;18.73;7.13;;;1.80;99.90;;;;;;4991353;28;20048;-78
2022/02/27 03:46:05;;;;;;;18.20;7.30;;;1.90;99.90;;;;;;4992192;28;20045;-79
2022/02/27 03:48:31;;;;;;;17.73;8.10;;;1.80;99.90;;;;;;4992183;28;20407;-79
2022/02/27 03:50:58;;;;;;;20.03;7.37;;;1.80;99.90;;;;;;4991485;28;20125;-78
2022/02/27 03:53:27;;;;;;;17.07;7.63;;;1.80;99.90;;;;;;4991882;28;20567;-78
2022/02/27 03:55:52;;;;;;;17.00;6.83;;;1.80;99.90;;;;;;4999196;28;20762;-78
2022/02/27 03:58:18;;;;;;;17.33;6.57;;;1.80;99.90;;;;;;4991837;28;20049;-77
2022/02/27 04:00:45;;;;;;;15.90;7.13;;;1.80;99.90;;;;;;4991565;28;20046;-77
2022/02/27 04:03:13;;;;;;;16.30;7.57;;;1.80;99.90;;;;;;4991618;28;20531;-79
2022/02/27 04:05:40;;;;;;;18.50;7.37;;;1.80;99.90;;;;;;4991238;28;20038;-77
2022/02/27 04:08:05;;;;;;;18.50;7.67;;;1.80;99.90;;;;;;4991774;28;20405;-78
2022/02/27 04:10:31;;;;;;;22.67;7.60;;;1.80;99.90;;;;;;5001819;28;20567;-77
2022/02/27 04:12:57;;;;;;;16.13;7.17;;;1.80;99.90;;;;;;5007717;28;20053;-77
2022/02/27 04:15:23;;;;;;;16.27;8.10;;;1.80;99.90;;;;;;4991630;28;20046;-78
2022/02/27 04:17:49;;;;;;;16.03;7.50;;;1.80;99.90;;;;;;5007685;28;20438;-79
2022/02/27 04:20:15;;;;;;;18.33;7.43;;;1.70;99.90;;;;;;4991354;28;20120;-78
2022/02/27 04:22:41;;;;;;;18.90;7.93;;;1.70;99.90;;;;;;4990720;28;20048;-77
2022/02/27 04:25:07;;;;;;;17.93;7.97;;;1.80;99.90;;;;;;4974688;28;20038;-79
2022/02/27 04:27:33;;;;;;;15.13;7.30;;;1.70;99.90;;;;;;4991379;28;20050;-79
2022/02/27 04:29:59;;;;;;;19.40;8.10;;;1.70;99.90;;;;;;4958750;28;20818;-79
2022/02/27 04:32:25;;;;;;;17.63;7.60;;;1.70;99.90;;;;;;4991528;28;20038;-79
2022/02/27 04:34:50;;;;;;;22.40;9.17;;;1.70;99.90;;;;;;4974863;28;20216;-78
2022/02/27 04:37:18;;;;;;;16.87;7.87;;;1.70;99.90;;;;;;4991618;28;20061;-79
2022/02/27 04:39:44;;;;;;;21.50;8.63;;;1.70;99.90;;;;;;4960436;28;20041;-79
2022/02/27 04:42:09;;;;;;;18.50;8.40;;;1.70;99.90;;;;;;4991936;28;20049;-79
2022/02/27 04:44:35;;;;;;;18.43;7.77;;;1.60;99.90;;;;;;4959530;28;20042;-79
2022/02/27 04:47:01;;;;;;;20.23;7.77;;;1.60;99.90;;;;;;4975635;28;20051;-79
2022/02/27 04:49:30;;;;;;;23.50;8.50;;;1.60;99.90;;;;;;5007899;28;20879;-78
2022/02/27 04:51:56;;;;;;;21.37;8.40;;;1.60;99.90;;;;;;4990423;28;20050;-78
2022/02/27 04:54:21;;;;;;;19.80;9.00;;;1.60;99.90;;;;;;4990794;28;20100;-79
2022/02/27 04:56:48;;;;;;;18.00;8.37;;;1.60;99.90;;;;;;4992837;28;20120;-79
2022/02/27 04:59:13;;;;;;;19.87;9.00;;;1.60;99.90;;;;;;5011203;28;20057;-78
2022/02/27 05:02:20;;;;;;;22.57;8.90;;;1.60;99.90;;;;;;5022124;28;20091;-79
2022/02/27 05:04:39;;;;;;;18.33;8.50;;;1.60;99.90;;;;;;5011009;28;20067;-78
2022/02/27 05:07:08;;;;;;;18.80;9.53;;;1.60;99.90;;;;;;5026749;28;20049;-77
2022/02/27 05:09:33;;;;;;;17.30;8.13;;;1.60;99.90;;;;;;4999806;28;20041;-78
2022/02/27 05:11:59;;;;;;;19.30;9.27;;;1.60;99.90;;;;;;4989884;28;20064;-79
2022/02/27 05:14:25;;;;;;;18.67;8.80;;;1.60;99.90;;;;;;4990616;28;20500;-78
2022/02/27 05:16:51;;;;;;;23.37;8.57;;;1.60;99.90;;;;;;4990105;28;20049;-78
2022/02/27 05:19:17;;;;;;;20.03;9.00;;;1.60;99.90;;;;;;4990852;28;20030;-79
2022/02/27 05:21:45;;;;;;;22.90;8.70;;;1.70;99.90;;;;;;4976617;28;20451;-77
2022/02/27 05:24:11;;;;;;;23.93;8.97;;;1.60;99.90;;;;;;5025963;28;20052;-79
2022/02/27 05:26:37;;;;;;;15.57;8.73;;;1.50;99.90;;;;;;4993656;28;20045;-78
2022/02/27 05:29:04;;;;;;;23.53;9.17;;;1.50;99.90;;;;;;5009422;28;20049;-78
2022/02/27 05:31:30;;;;;;;19.33;9.43;;;1.60;99.90;;;;;;5008754;28;20074;-78
2022/02/27 05:33:56;;;;;;;18.17;9.70;;;1.50;99.90;;;;;;5009342;28;20054;-79
2022/02/27 05:36:22;;;;;;;19.23;9.13;;;1.50;99.90;;;;;;5013773;28;20057;-78
2022/02/27 05:38:48;;;;;;;19.07;8.93;;;1.50;99.90;;;;;;4989841;28;20479;-78
2022/02/27 05:41:13;;;;;;;19.50;8.60;;;1.50;99.90;;;;;;4989990;28;20050;-78
2022/02/27 05:43:41;;;;;;;16.00;9.30;;;1.40;99.90;;;;;;5007270;28;20049;-78
2022/02/27 05:46:07;;;;;;;19.33;9.60;;;1.40;99.90;;;;;;5006127;28;20042;-78
2022/02/27 05:48:32;;;;;;;19.53;9.10;;;1.40;99.90;;;;;;4990445;28;20053;-78
2022/02/27 05:50:58;;;;;;;21.47;8.97;;;1.40;99.90;;;;;;5006099;28;20061;-78
2022/02/27 05:53:24;;;;;;;17.83;9.03;;;1.40;99.90;;;;;;4984081;28;20055;-79
2022/02/27 05:55:56;;;;;;;20.97;9.47;;;1.40;99.90;;;;;;5013447;28;20042;-78
2022/02/27 05:58:24;;;;;;;19.27;9.43;;;1.40;99.90;;;;;;4990619;28;20086;-78
2022/02/27 06:00:50;;;;;;;21.80;10.17;;;1.40;99.90;;;;;;4998198;28;20041;-78
2022/02/27 06:03:17;;;;;;;20.57;10.03;;;1.40;99.90;;;;;;5010325;28;20133;-78
2022/02/27 06:05:43;;;;;;;20.63;10.57;;;1.40;99.90;;;;;;4993400;28;20053;-78
2022/02/27 06:08:09;;;;;;;19.47;9.57;;;1.30;99.90;;;;;;4993504;28;20053;-78
2022/02/27 06:10:35;;;;;;;20.87;9.73;;;1.30;99.90;;;;;;4984329;28;20046;-78
2022/02/27 06:13:01;;;;;;;19.20;10.23;;;1.30;99.90;;;;;;5005995;28;20203;-78
2022/02/27 06:15:26;;;;;;;20.07;9.70;;;1.30;99.90;;;;;;5007483;28;20046;-78
2022/02/27 06:17:52;;;;;;;17.27;10.03;;;1.30;99.90;;;;;;4974255;28;20096;-78
2022/02/27 06:20:18;;;;;;;23.13;10.33;;;1.20;99.90;;;;;;4974428;28;20049;-79
2022/02/27 06:22:46;;;;;;;18.97;10.17;;;1.20;99.90;;;;;;5006622;28;20045;-78
2022/02/27 06:25:13;;;;;;;24.30;10.57;;;1.20;99.90;;;;;;4989834;28;20077;-78
2022/02/27 06:27:42;;;;;;;17.93;10.03;;;1.20;99.90;;;;;;4990828;28;20063;-79
2022/02/27 06:30:17;;;;;;;18.53;9.50;;;1.20;99.90;;;;;;5006585;28;20046;-80
2022/02/27 06:32:47;;;;;;;23.03;10.43;;;1.20;99.90;;;;;;5023678;28;20577;-78
2022/02/27 06:35:13;;;;;;;21.43;11.23;;;1.20;99.90;;;;;;5009644;28;20038;-79
2022/02/27 06:37:40;;;;;;;21.27;10.50;;;1.20;99.90;;;;;;4977507;28;20511;-79
2022/02/27 06:40:10;;;;;;;19.73;10.77;;;1.10;99.90;;;;;;5009512;28;20056;-78
2022/02/27 06:42:38;;;;;;;17.70;10.25;;;1.20;99.90;;;;;;5010119;28;20049;-79
2022/02/27 06:45:05;;;;;;;19.67;11.27;;;1.20;99.90;;;;;;4976872;28;20077;-78
2022/02/27 06:47:31;;;;;;;21.03;10.73;;;1.20;99.90;;;;;;4993746;28;20134;-79
2022/02/27 06:49:58;;;;;;;17.63;10.73;;;1.20;99.90;;;;;;4993535;28;20148;-80
2022/02/27 06:52:24;;;;;;;19.90;10.73;;;1.40;99.90;;;;;;5009978;28;20588;-79
2022/02/27 06:54:50;;;;;;;19.17;10.93;;;1.40;99.90;;;;;;4961450;28;20144;-78
2022/02/27 06:57:15;;;;;;;21.27;10.63;;;1.40;99.90;;;;;;4994178;28;20052;-79
2022/02/27 06:59:42;;;;;;;22.67;10.87;;;1.50;99.90;;;;;;4996790;28;20049;-78
2022/02/27 07:02:08;;;;;;;23.27;10.57;;;1.50;99.90;;;;;;5012907;28;20455;-80
2022/02/27 07:04:35;;;;;;;18.17;10.53;;;1.50;99.90;;;;;;5009478;28;20049;-80
2022/02/27 07:07:00;;;;;;;19.93;10.70;;;1.60;99.90;;;;;;5009216;28;20687;-78
2022/02/27 07:09:26;;;;;;;23.77;11.40;;;1.60;99.90;;;;;;5003357;28;20051;-79
2022/02/27 07:11:53;;;;;;;21.50;11.20;;;1.60;99.90;;;;;;5008241;28;20073;-80
2022/02/27 07:14:20;;;;;;;18.63;11.37;;;1.60;99.90;;;;;;5008106;28;20053;-80
2022/02/27 07:16:46;;;;;;;19.40;10.13;;;1.60;99.90;;;;;;4993078;28;20046;-79
2022/02/27 07:19:11;;;;;;;22.50;11.27;;;1.60;99.90;;;;;;5008994;28;20056;-79
2022/02/27 07:21:37;;;;;;;20.03;11.43;;;1.70;99.90;;;;;;4999257;28;20509;-79
2022/02/27 07:24:03;;;;;;;20.50;10.90;;;1.70;99.90;;;;;;4992227;28;20100;-79
2022/02/27 07:26:29;;;;;;;23.30;10.87;;;1.70;99.90;;;;;;4990038;28;20125;-80
2022/02/27 07:28:55;;;;;;;17.73;10.97;;;1.80;99.90;;;;;;5009229;28;20613;-80
2022/02/27 07:31:21;;;;;;;18.63;10.37;;;1.80;99.90;;;;;;4997918;28;20077;-78
2022/02/27 07:33:49;;;;;;;24.40;12.13;;;1.80;99.90;;;;;;5008613;28;20077;-80
2022/02/27 07:36:15;;;;;;;20.73;9.90;;;1.80;99.90;;;;;;5004923;28;20056;-78
2022/02/27 07:38:41;;;;;;;17.57;10.10;;;1.90;99.90;;;;;;5012105;28;20049;-77
2022/02/27 07:41:06;;;;;;;27.47;10.90;;;1.90;99.90;;;;;;4999221;28;20420;-79
2022/02/27 07:43:32;;;;;;;20.83;10.13;;;2.00;99.90;;;;;;4992850;28;20045;-79
2022/02/27 07:46:03;;;;;;;17.50;10.87;;;2.10;99.90;;;;;;5007976;28;20412;-80
2022/02/27 07:48:29;;;;;;;17.90;9.97;;;2.10;99.90;;;;;;4992698;28;20045;-80
2022/02/27 07:50:55;;;;;;;22.30;11.37;;;2.10;99.90;;;;;;5008577;28;20064;-80
2022/02/27 07:53:21;;;;;;;19.10;10.53;;;2.20;99.90;;;;;;4993220;28;20499;-78
2022/02/27 07:55:47;;;;;;;18.87;10.23;;;2.20;99.90;;;;;;5006077;28;20690;-78
2022/02/27 07:58:13;;;;;;;20.27;9.97;;;2.30;99.90;;;;;;4988955;28;20607;-78
2022/02/27 08:00:41;;;;;;;18.77;10.30;;;2.30;99.90;;;;;;4982881;28;20493;-79
2022/02/27 08:03:10;;;;;;;17.17;8.83;;;2.40;99.90;;;;;;4998269;28;20080;-78
2022/02/27 08:05:37;;;;;;;20.53;10.00;;;2.40;99.90;;;;;;4991561;28;20041;-79
2022/02/27 08:08:03;;;;;;;19.50;10.13;;;2.50;99.90;;;;;;5015471;28;20542;-80
2022/02/27 08:10:29;;;;;;;17.27;9.93;;;2.60;99.90;;;;;;4996682;28;20545;-80
2022/02/27 08:12:55;;;;;;;19.53;9.53;;;2.70;99.90;;;;;;4998603;28;20080;-79
2022/02/27 08:15:21;;;;;;;21.17;9.30;;;2.80;99.90;;;;;;4986619;28;20547;-78
2022/02/27 08:17:50;;;;;;;17.27;9.47;;;3.00;99.90;;;;;;4983405;28;20034;-78
2022/02/27 08:20:17;;;;;;;19.27;10.10;;;3.10;99.90;;;;;;4986614;28;20058;-78
2022/02/27 08:22:42;;;;;;;20.97;9.50;;;3.20;99.90;;;;;;5007368;28;20041;-81
2022/02/27 08:25:11;;;;;;;15.40;9.00;;;3.50;99.90;;;;;;4974506;28;20043;-79
2022/02/27 08:27:38;;;;;;;14.73;8.50;;;3.60;99.90;;;;;;5009727;28;20450;-79
2022/02/27 08:30:05;;;;;;;19.20;8.43;;;3.80;99.90;;;;;;4992461;28;20077;-79
2022/02/27 08:32:31;;;;;;;17.80;8.53;;;3.90;99.90;;;;;;4987306;28;20060;-79
2022/02/27 08:35:00;;;;;;;14.47;8.60;;;4.10;99.90;;;;;;5017858;28;20132;-79
2022/02/27 08:37:26;;;;;;;19.97;9.43;;;4.20;99.90;;;;;;4992477;28;20060;-80
2022/02/27 08:39:52;;;;;;;14.67;8.60;;;4.40;99.90;;;;;;4969698;28;20045;-79
2022/02/27 08:42:18;;;;;;;16.23;8.70;;;4.40;99.90;;;;;;5003287;28;20041;-78
2022/02/27 08:44:44;;;;;;;14.83;8.03;;;4.60;99.90;;;;;;5017870;28;20046;-80
2022/02/27 08:47:10;;;;;;;15.73;8.47;;;4.70;99.90;;;;;;4982935;28;20053;-79
2022/02/27 08:49:36;;;;;;;17.40;9.13;;;4.80;99.90;;;;;;5001354;28;20451;-80
2022/02/27 08:52:03;;;;;;;15.57;7.93;;;4.80;99.90;;;;;;4988375;28;20460;-78
2022/02/27 08:54:29;;;;;;;19.73;7.90;;;4.90;99.90;;;;;;5005075;28;20230;-80
2022/02/27 08:56:55;;;;;;;15.77;8.27;;;5.00;99.90;;;;;;5007775;28;20030;-79
2022/02/27 08:59:22;;;;;;;11.40;6.50;;;5.10;99.90;;;;;;4976237;28;20099;-76
2022/02/27 09:01:48;;;;;;;15.70;7.20;;;5.20;99.90;;;;;;4966975;28;20126;-79
2022/02/27 09:04:19;;;;;;;15.33;6.97;;;5.20;99.90;;;;;;4993926;28;20566;-76
2022/02/27 09:06:45;;;;;;;16.23;6.97;;;5.30;99.90;;;;;;5000192;28;20416;-78
2022/02/27 09:09:11;;;;;;;17.07;6.63;;;5.30;99.90;;;;;;4995909;28;20181;-80
2022/02/27 09:11:38;;;;;;;12.60;6.82;;;5.30;99.90;;;;;;4992952;28;20041;-79
2022/02/27 09:14:04;;;;;;;13.50;6.55;;;5.30;99.90;;;;;;4991518;28;20416;-78
2022/02/27 09:16:29;;;;;;;15.63;7.00;;;5.20;99.90;;;;;;4988375;28;20042;-77
2022/02/27 09:18:55;;;;;;;16.90;7.55;;;5.20;99.90;;;;;;4978137;28;20052;-80
2022/02/27 09:21:21;;;;;;;12.23;6.50;;;5.20;99.90;;;;;;4986597;28;20064;-80
2022/02/27 09:23:47;;;;;;;16.50;6.45;;;5.30;99.90;;;;;;4982562;28;20054;-78
2022/02/27 09:26:13;;;;;;;13.20;6.55;;;5.30;99.90;;;;;;4994437;28;20049;-80
2022/02/27 09:28:39;;;;;;;13.82;6.38;;;5.30;99.90;;;;;;4986634;28;20117;-79
2022/02/27 09:31:05;;;;;;;13.55;5.97;;;5.40;99.90;;;;;;4994535;28;20136;-79
2022/02/27 09:33:32;;;;;;;11.60;6.07;;;5.40;99.90;;;;;;4998038;28;20061;-78
2022/02/27 09:36:07;;;;;;;13.57;6.63;;;5.40;99.90;;;;;;4980454;28;20069;-81
2022/02/27 09:38:35;;;;;;;13.20;6.53;;;5.50;99.90;;;;;;4977729;28;20297;-81
2022/02/27 09:41:03;;;;;;;15.73;6.30;;;5.60;99.90;;;;;;4963954;28;20633;-79
2022/02/27 09:43:32;;;;;;;13.23;6.03;;;5.60;99.90;;;;;;5010271;28;20452;-80
2022/02/27 09:46:01;;;;;;;11.80;6.22;;;5.60;99.90;;;;;;5009882;28;20562;-80
2022/02/27 09:48:28;;;;;;;15.23;6.53;;;5.60;99.90;;;;;;4980198;28;20422;-80
2022/02/27 09:50:54;;;;;;;13.52;6.28;;;5.60;99.90;;;;;;4990890;28;20528;-81
2022/02/27 09:53:20;;;;;;;12.93;5.95;;;5.70;99.90;;;;;;4984664;28;20052;-76
2022/02/27 09:55:47;;;;;;;11.30;6.28;;;5.80;99.90;;;;;;4962341;28;20093;-80
2022/02/27 09:58:13;;;;;;;10.77;5.60;;;5.80;99.90;;;;;;5007817;28;20399;-78
2022/02/27 10:00:39;;;;;;;14.52;6.50;;;5.90;99.90;;;;;;4979653;28;20033;-81
2022/02/27 10:03:10;;;;;;;12.43;6.00;;;5.90;99.90;;;;;;5005259;28;20532;-80
2022/02/27 10:05:38;;;;;;;11.38;5.35;;;6.00;99.90;;;;;;4990895;28;20068;-78
2022/02/27 10:10:54;;;;;;;13.63;5.80;;;6.00;99.90;;;;;;4993492;22;20097;-78
2022/02/27 10:13:42;;;;;;;14.35;6.45;;;6.00;99.90;;;;;;4993496;28;20052;-76
2022/02/27 10:16:14;;;;;;;12.77;5.60;;;6.00;99.90;;;;;;4989563;28;20054;-76
2022/02/27 10:18:51;;;;;;;12.70;6.18;;;6.10;99.90;;;;;;4972829;28;20349;-76
2022/02/27 10:21:19;;;;;;;10.95;5.38;;;6.10;99.90;;;;;;4989113;28;20304;-77
2022/02/27 10:23:54;;;;;;;12.00;5.85;;;6.10;99.90;;;;;;4988732;28;20399;-76
2022/02/27 10:26:22;;;;;;;13.02;5.95;;;6.20;99.90;;;;;;4988090;28;20103;-77
2022/02/27 10:29:08;;;;;;;12.77;6.03;;;6.20;99.90;;;;;;4988599;28;20527;-76
2022/02/27 10:31:36;;;;;;;13.73;6.63;;;6.30;99.90;;;;;;4987473;28;20049;-76
2022/02/27 10:34:23;;;;;;;14.00;6.57;;;6.30;99.90;;;;;;4987514;28;20105;-74
2022/02/27 10:37:10;;;;;;;12.20;6.57;;;6.30;99.90;;;;;;4976887;28;20111;-73
2022/02/27 10:39:44;;;;;;;10.50;6.47;;;6.40;99.90;;;;;;4970074;28;20058;-73
2022/02/27 10:42:27;;;;;;;11.35;6.53;;;6.40;99.90;;;;;;4983874;28;20056;-75
2022/02/27 10:44:56;;;;;;;13.73;6.85;;;6.40;99.90;;;;;;4981550;28;20244;-77
2022/02/27 10:47:29;;;;;;;11.55;6.78;;;6.50;99.90;;;;;;4978970;28;20528;-75
2022/02/27 10:49:57;;;;;;;14.88;6.63;;;6.60;99.90;;;;;;4990402;28;20061;-75
2022/02/27 10:52:27;;;;;;;11.55;6.22;;;6.60;99.90;;;;;;4990763;28;20093;-76
2022/02/27 10:54:57;;;;;;;;;;;6.60;99.90;;;;;;5001419;28;20050;-78
2022/02/27 10:57:32;;;;;;;11.32;6.43;;;6.60;99.90;;;;;;4997236;28;19960;-77
2022/02/27 11:00:10;;;;;;;16.13;7.07;;;6.70;99.90;;;;;;5001508;28;20073;-78
2022/02/27 11:02:37;;;;;;;12.48;6.82;;;6.80;99.90;;;;;;4992150;28;20091;-77
2022/02/27 11:05:06;;;;;;;11.90;6.00;;;6.80;99.90;;;;;;4999509;28;20034;-74
2022/02/27 11:07:34;;;;;;;10.70;6.45;;;6.90;99.90;;;;;;4984514;28;20129;-74
2022/02/27 11:10:00;;;;;;;15.35;6.57;;;6.90;99.90;;;;;;4984915;28;20174;-77
2022/02/27 11:12:28;;;;;;;13.02;6.70;;;6.90;99.90;;;;;;5004893;28;20290;-77
2022/02/27 11:14:55;;;;;;;12.52;6.30;;;6.90;99.90;;;;;;4988466;28;20060;-75
2022/02/27 11:17:23;;;;;;;10.23;5.95;;;7.00;99.90;;;;;;4988350;28;20049;-77
2022/02/27 11:19:49;;;;;;;12.13;6.07;;;6.90;99.90;;;;;;5003989;28;20057;-77
2022/02/27 11:22:16;;;;;;;14.40;6.50;;;6.90;99.90;;;;;;4972015;28;20053;-75
2022/02/27 11:24:43;;;;;;;11.38;6.35;;;7.00;99.90;;;;;;4999618;28;20042;-75
2022/02/27 11:27:13;;;;;;;12.02;5.72;;;7.10;99.90;;;;;;4955685;28;20502;-77
2022/02/27 11:29:41;;;;;;;10.13;5.32;;;7.00;99.90;;;;;;4986469;28;20049;-77
2022/02/27 11:32:07;;;;;;;10.93;5.78;;;7.10;99.90;;;;;;4964949;28;20100;-77
2022/02/27 11:34:41;;;;;;;12.70;5.57;;;7.10;99.90;;;;;;4973189;28;20353;-77
2022/02/27 11:37:07;;;;;;;11.10;5.85;;;7.10;99.90;;;;;;4981284;28;20492;-77
2022/02/27 11:42:46;;;;;;;15.15;5.95;;;7.10;99.90;;;;;;4991115;28;20058;-77
2022/02/27 11:45:12;;;;;;;11.98;5.88;;;7.20;99.90;;;;;;4980332;28;20045;-77
2022/02/27 11:47:53;;;;;;;12.82;6.13;;;7.20;99.90;;;;;;4944400;28;20055;-77
2022/02/27 11:50:30;;;;;;;11.98;5.38;;;7.20;99.90;;;;;;4953351;28;20172;-78
2022/02/27 11:52:59;;;;;;;12.32;5.88;;;7.20;99.90;;;;;;4960879;28;20093;-78
2022/02/27 11:55:42;;;;;;;10.27;5.93;;;7.30;99.90;;;;;;4974398;28;20415;-77
2022/02/27 11:58:24;;;;;;;11.05;4.93;;;7.40;99.90;;;;;;4980453;28;20073;-79
2022/02/27 12:01:02;;;;;;;11.10;4.80;;;7.40;99.90;;;;;;4973016;28;20046;-75
2022/02/27 12:03:31;;;;;;;10.90;5.28;;;7.50;99.90;;;;;;4982267;28;20263;-79
2022/02/27 12:06:02;;;;;;;9.88;4.72;;;7.60;99.90;;;;;;4990202;28;20400;-78
2022/02/27 12:08:45;;;;;;;11.20;4.78;;;7.70;99.90;;;;;;4986168;28;20060;-79
2022/02/27 12:11:30;;;;;;;9.18;4.60;;;7.80;99.40;;;;;;4992967;28;20534;-79
2022/02/27 12:14:02;;;;;;;8.30;4.82;;;7.90;99.70;;;;;;4988690;28;20566;-77
2022/02/27 12:16:41;;;;;;;9.02;4.28;;;8.00;99.60;;;;;;4957299;28;20530;-77
2022/02/27 12:19:24;;;;;;;7.60;4.55;;;8.00;99.00;;;;;;4987540;28;20104;-76
2022/02/27 12:21:58;;;;;;;9.85;4.75;;;8.00;98.20;;;;;;4988012;28;20491;-78
2022/02/27 12:24:31;;;;;;;10.27;5.22;;;8.00;99.30;;;;;;4993750;28;20056;-77
2022/02/27 12:26:58;;;;;;;10.63;4.60;;;8.00;99.50;;;;;;4987373;28;20255;-76
2022/02/27 12:29:36;;;;;;;10.63;4.38;;;8.00;99.50;;;;;;4986550;28;20047;-77
2022/02/27 12:32:18;;;;;;;12.80;4.32;;;8.10;99.40;;;;;;4983406;28;20062;-77
2022/02/27 12:34:47;;;;;;;9.02;4.15;;;8.10;98.40;;;;;;4981416;28;20046;-75
2022/02/27 12:37:15;;;;;;;7.97;4.40;;;8.10;97.90;;;;;;4981442;28;20058;-80
2022/02/27 12:39:43;;;;;;;6.40;4.07;;;8.10;97.20;;;;;;4970055;28;20046;-78
2022/02/27 12:42:11;;;;;;;10.10;4.70;;;8.10;97.50;;;;;;4957285;28;20483;-75
2022/02/27 12:44:42;;;;;;;10.43;4.85;;;8.20;97.40;;;;;;4981687;28;20042;-76
2022/02/27 12:47:11;;;;;;;7.80;4.32;;;8.30;97.80;;;;;;4973105;28;20050;-74
2022/02/27 12:52:27;;;;;;;7.40;3.67;;;8.30;97.10;;;;;;4981604;28;20089;-76
2022/02/27 12:54:55;;;;;;;7.95;3.88;;;8.30;96.50;;;;;;4964884;28;20057;-77
2022/02/27 12:57:22;;;;;;;7.25;3.85;;;8.40;96.70;;;;;;4965601;28;20076;-83